Time;durP1;ratioP1;P1;durP2;ratioP2;P2;SDS_P1;SDS_P2;PMS_P1;PMS_P2;Temp;Humidity;BMP_temperature;BMP_pressure;BME280_temperature;BME280_humidity;BME280_pressure;Samples;Min_cycle;Max_cycle;Signal;HPM_P1;HPM_P2
2022/01/10 00:00:49;;;;;;;6.63;4.13;;;4.40;99.90;;;;;;4993403;28;20205;-57
2022/01/10 00:03:14;;;;;;;6.73;4.27;;;4.30;99.90;;;;;;4993301;28;20200;-51
2022/01/10 00:05:40;;;;;;;6.27;3.90;;;4.20;99.90;;;;;;4993262;28;20228;-58
2022/01/10 00:08:06;;;;;;;4.80;3.50;;;4.20;99.90;;;;;;4993336;28;20542;-50
2022/01/10 00:10:32;;;;;;;5.83;3.80;;;4.30;99.90;;;;;;4993349;28;20193;-50
2022/01/10 00:12:58;;;;;;;5.97;3.80;;;4.30;99.90;;;;;;4993456;28;20565;-56
2022/01/10 00:15:24;;;;;;;4.50;3.63;;;4.30;99.90;;;;;;4988316;28;20169;-52
2022/01/10 00:17:50;;;;;;;5.93;3.83;;;4.10;99.90;;;;;;4992613;28;20185;-49
2022/01/10 00:20:17;;;;;;;6.50;4.07;;;4.00;99.90;;;;;;4992580;28;20193;-52
2022/01/10 00:22:46;;;;;;;4.33;3.93;;;4.10;99.90;;;;;;4992813;28;20215;-50
2022/01/10 00:25:13;;;;;;;5.30;3.47;;;4.10;99.90;;;;;;4992442;28;20177;-53
2022/01/10 00:27:38;;;;;;;5.37;3.70;;;4.20;99.90;;;;;;4993062;28;20197;-56
2022/01/10 00:30:04;;;;;;;6.30;4.07;;;4.20;99.90;;;;;;4992734;28;20227;-55
2022/01/10 00:32:30;;;;;;;4.23;3.70;;;4.10;99.90;;;;;;4992838;28;20643;-51
2022/01/10 00:34:56;;;;;;;7.43;4.40;;;4.00;99.90;;;;;;4992388;28;20260;-55
2022/01/10 00:37:21;;;;;;;5.50;4.23;;;4.10;99.90;;;;;;4993260;28;20173;-53
2022/01/10 00:39:48;;;;;;;7.80;4.60;;;4.20;99.90;;;;;;4992772;28;20193;-54
2022/01/10 00:42:14;;;;;;;6.53;4.33;;;4.20;99.90;;;;;;4992745;28;20197;-50
2022/01/10 00:44:45;;;;;;;7.27;4.53;;;3.90;99.90;;;;;;4992591;28;20169;-53
2022/01/10 00:47:11;;;;;;;5.47;4.30;;;4.30;99.90;;;;;;4992590;28;20172;-56
2022/01/10 00:49:36;;;;;;;6.30;4.07;;;4.30;99.90;;;;;;4992265;28;20177;-58
2022/01/10 00:52:03;;;;;;;5.60;4.87;;;4.30;99.90;;;;;;4992553;28;20184;-51
2022/01/10 00:54:28;;;;;;;6.10;4.50;;;4.40;99.90;;;;;;4992302;28;20176;-53
2022/01/10 00:56:54;;;;;;;6.60;5.13;;;4.30;99.90;;;;;;4992422;28;20181;-55
2022/01/10 00:59:19;;;;;;;4.33;3.93;;;4.30;99.90;;;;;;4992558;28;20173;-55
2022/01/10 01:01:45;;;;;;;6.87;4.73;;;4.30;99.90;;;;;;4992226;28;20270;-51
2022/01/10 01:04:11;;;;;;;6.37;4.73;;;4.30;99.90;;;;;;4992337;28;20213;-52
2022/01/10 01:06:37;;;;;;;6.97;4.40;;;4.30;99.90;;;;;;4992335;28;20259;-55
2022/01/10 01:09:07;;;;;;;6.97;4.60;;;4.30;99.90;;;;;;4992365;28;20205;-51
2022/01/10 01:14:54;;;;;;;7.00;4.70;;;4.30;99.90;;;;;;4992377;28;20192;-55
2022/01/10 01:17:14;;;;;;;7.10;5.57;;;4.20;99.90;;;;;;4986855;28;20236;-50
2022/01/10 01:25:09;;;;;;;7.20;5.10;;;4.10;99.90;;;;;;4992671;28;20187;-56
2022/01/10 01:27:34;;;;;;;7.43;5.40;;;4.10;99.90;;;;;;4992341;28;20177;-51
2022/01/10 01:30:00;;;;;;;7.00;5.27;;;4.20;99.90;;;;;;4992103;28;20189;-51
2022/01/10 01:32:26;;;;;;;6.40;5.30;;;4.20;99.90;;;;;;4992280;28;20590;-56
2022/01/10 01:34:55;;;;;;;8.33;5.33;;;4.30;99.90;;;;;;4991833;28;20173;-56
2022/01/10 01:37:21;;;;;;;5.73;4.87;;;4.30;99.90;;;;;;4992172;28;20236;-53
2022/01/10 01:39:46;;;;;;;6.67;5.03;;;4.30;99.90;;;;;;4978973;28;20205;-51
2022/01/10 01:42:33;;;;;;;6.00;4.73;;;4.20;99.90;;;;;;4991673;28;20230;-53
2022/01/10 01:45:00;;;;;;;6.77;4.73;;;4.20;99.90;;;;;;4991658;28;20184;-54
2022/01/10 01:47:26;;;;;;;9.97;6.00;;;4.20;99.90;;;;;;4991732;28;20184;-54
2022/01/10 01:49:51;;;;;;;6.33;5.20;;;4.20;99.90;;;;;;4991536;28;20283;-54
2022/01/10 01:52:17;;;;;;;6.33;5.17;;;4.20;99.90;;;;;;4992175;28;20173;-57
2022/01/10 01:54:43;;;;;;;8.80;5.30;;;4.30;99.90;;;;;;4991494;28;20216;-58
2022/01/10 01:57:09;;;;;;;6.67;4.93;;;4.20;99.90;;;;;;4974340;28;20686;-56
2022/01/10 01:59:36;;;;;;;8.07;4.97;;;4.10;99.90;;;;;;4992080;28;20538;-56
2022/01/10 02:02:02;;;;;;;6.67;4.70;;;4.10;99.90;;;;;;4991728;28;20177;-55
2022/01/10 02:04:27;;;;;;;6.00;5.27;;;4.10;99.90;;;;;;4991968;28;20180;-54
2022/01/10 02:06:53;;;;;;;7.73;5.60;;;4.20;99.90;;;;;;4991749;28;20185;-55
2022/01/10 02:09:18;;;;;;;6.70;5.27;;;4.20;99.90;;;;;;4992024;28;20208;-55
2022/01/10 02:11:44;;;;;;;6.57;5.20;;;4.10;99.90;;;;;;4991902;28;20200;-56
2022/01/10 02:14:10;;;;;;;7.70;5.67;;;4.10;99.90;;;;;;4988256;28;20269;-56
2022/01/10 02:16:54;;;;;;;7.27;5.50;;;4.00;99.90;;;;;;4995298;28;20185;-56
2022/01/10 02:19:20;;;;;;;7.80;5.10;;;4.10;99.90;;;;;;4995581;28;20654;-54
2022/01/10 02:21:46;;;;;;;5.47;4.97;;;4.10;99.90;;;;;;4995278;28;20205;-56
2022/01/10 02:24:11;;;;;;;5.37;4.77;;;4.20;99.90;;;;;;4995108;28;20586;-55
2022/01/10 02:26:39;;;;;;;9.13;5.83;;;4.20;99.90;;;;;;4995467;28;20197;-51
2022/01/10 02:29:06;;;;;;;6.03;5.43;;;4.20;99.90;;;;;;4995304;28;20169;-52
2022/01/10 02:31:35;;;;;;;6.33;5.10;;;4.30;99.90;;;;;;4995402;28;20332;-53
2022/01/10 02:34:01;;;;;;;8.33;5.40;;;4.20;99.90;;;;;;4994761;28;20177;-51
2022/01/10 02:36:27;;;;;;;6.13;5.30;;;4.30;99.90;;;;;;4995268;28;20180;-50
2022/01/10 02:38:55;;;;;;;7.03;5.33;;;4.30;99.90;;;;;;4994877;28;20181;-50
2022/01/10 02:41:29;;;;;;;5.57;5.07;;;4.30;99.90;;;;;;4994982;28;20212;-54
2022/01/10 02:43:56;;;;;;;6.80;5.10;;;4.30;99.90;;;;;;4994778;28;20291;-50
2022/01/10 02:46:23;;;;;;;7.97;5.17;;;4.40;99.90;;;;;;4994875;28;20635;-50
2022/01/10 02:48:49;;;;;;;6.40;5.50;;;4.30;99.90;;;;;;4994523;28;20169;-54
2022/01/10 02:51:15;;;;;;;6.33;5.40;;;4.20;99.90;;;;;;4994656;28;20216;-50
2022/01/10 02:53:41;;;;;;;7.33;5.77;;;4.20;99.90;;;;;;4994832;28;20177;-51
2022/01/10 02:56:07;;;;;;;6.77;5.10;;;4.20;99.90;;;;;;4994639;28;20177;-50
2022/01/10 02:58:32;;;;;;;6.83;5.40;;;4.10;99.90;;;;;;4994777;28;20260;-51
2022/01/10 03:00:58;;;;;;;6.07;4.97;;;4.10;99.90;;;;;;4994740;28;20193;-50
2022/01/10 03:03:29;;;;;;;6.60;5.90;;;4.10;99.90;;;;;;4996949;28;20215;-50
2022/01/10 03:05:55;;;;;;;8.60;5.90;;;4.10;99.90;;;;;;5010840;28;20235;-50
2022/01/10 03:08:20;;;;;;;7.47;5.53;;;4.00;99.90;;;;;;4994304;28;20169;-50
2022/01/10 03:10:46;;;;;;;7.17;5.60;;;3.90;99.90;;;;;;4994028;28;20193;-50
2022/01/10 03:13:11;;;;;;;6.63;5.70;;;3.90;99.90;;;;;;4994279;28;20178;-51
2022/01/10 03:15:37;;;;;;;7.23;5.53;;;3.90;99.90;;;;;;4993916;28;20701;-50
2022/01/10 03:18:02;;;;;;;8.30;6.20;;;3.90;99.90;;;;;;4994379;28;20713;-53
2022/01/10 03:20:28;;;;;;;7.03;5.50;;;3.70;99.90;;;;;;5008827;28;20765;-50
2022/01/10 03:22:53;;;;;;;8.27;5.77;;;3.70;99.90;;;;;;4977629;28;20701;-50
2022/01/10 03:25:19;;;;;;;8.87;6.23;;;3.40;99.90;;;;;;4993873;28;20513;-51
2022/01/10 03:27:46;;;;;;;9.03;6.00;;;3.20;99.90;;;;;;4994268;28;20248;-54
2022/01/10 03:30:12;;;;;;;6.60;5.80;;;3.30;99.90;;;;;;4994260;28;20193;-53
2022/01/10 03:32:38;;;;;;;7.50;5.60;;;3.40;99.90;;;;;;4993936;28;20173;-50
2022/01/10 03:35:05;;;;;;;8.17;5.93;;;3.60;99.90;;;;;;4993780;28;20173;-51
2022/01/10 03:37:31;;;;;;;7.73;6.03;;;3.80;99.90;;;;;;4993639;28;20643;-53
2022/01/10 03:39:57;;;;;;;8.87;6.47;;;3.90;99.90;;;;;;4994198;28;20713;-50
2022/01/10 03:42:22;;;;;;;7.93;6.10;;;4.00;99.90;;;;;;4993745;28;20201;-50
2022/01/10 03:44:48;;;;;;;7.53;6.47;;;4.00;99.90;;;;;;4993637;28;20220;-53
2022/01/10 03:47:14;;;;;;;7.10;6.33;;;4.10;99.90;;;;;;4993723;28;20200;-53
2022/01/10 03:49:39;;;;;;;7.23;6.53;;;4.10;99.90;;;;;;4993481;28;20200;-50
2022/01/10 03:52:05;;;;;;;8.37;6.33;;;4.10;99.90;;;;;;4993629;28;20224;-51
2022/01/10 03:54:31;;;;;;;6.60;6.00;;;4.10;99.90;;;;;;4993592;28;20256;-51
2022/01/10 03:56:57;;;;;;;8.07;6.77;;;4.10;99.90;;;;;;4993730;28;20170;-50
2022/01/10 03:59:22;;;;;;;7.87;6.30;;;4.20;99.90;;;;;;4993646;28;20197;-50
2022/01/10 04:01:50;;;;;;;8.30;6.80;;;4.10;99.90;;;;;;4993513;28;20197;-50
2022/01/10 04:04:17;;;;;;;7.73;6.77;;;4.10;99.90;;;;;;4975710;28;20196;-52
2022/01/10 04:06:43;;;;;;;8.70;6.77;;;4.20;99.90;;;;;;4993518;28;20762;-50
2022/01/10 04:09:08;;;;;;;8.50;7.40;;;4.20;99.90;;;;;;4993366;28;20173;-50
2022/01/10 04:11:34;;;;;;;8.57;7.00;;;4.10;99.90;;;;;;4993135;28;20197;-51
2022/01/10 04:14:00;;;;;;;9.47;7.23;;;4.10;99.90;;;;;;4993032;28;20177;-55
2022/01/10 04:16:25;;;;;;;8.43;6.47;;;4.00;99.90;;;;;;4975867;28;20650;-52
2022/01/10 04:18:51;;;;;;;9.20;7.27;;;3.90;99.90;;;;;;4975744;28;20196;-50
2022/01/10 04:21:16;;;;;;;8.60;7.10;;;3.90;99.90;;;;;;4993381;28;20197;-52
2022/01/10 04:23:42;;;;;;;11.03;7.33;;;3.90;99.90;;;;;;4993155;28;20570;-50
2022/01/10 04:26:08;;;;;;;8.27;6.73;;;3.90;99.90;;;;;;4989140;28;20174;-54
2022/01/10 04:28:33;;;;;;;10.47;6.93;;;3.90;99.90;;;;;;4991839;28;20256;-53
2022/01/10 04:30:59;;;;;;;8.03;7.10;;;3.80;99.90;;;;;;4992292;28;20197;-50
2022/01/10 04:33:29;;;;;;;10.43;7.33;;;3.70;99.90;;;;;;4992805;28;20248;-53
2022/01/10 04:35:55;;;;;;;8.07;7.27;;;3.70;99.90;;;;;;4991700;28;20582;-55
2022/01/10 04:38:21;;;;;;;8.60;6.70;;;3.60;99.90;;;;;;4992805;28;20204;-50
2022/01/10 04:40:46;;;;;;;8.47;6.90;;;2.80;99.90;;;;;;4992614;28;20616;-50
2022/01/10 04:43:12;;;;;;;8.50;6.67;;;3.40;99.90;;;;;;4992474;28;20197;-51
2022/01/10 04:45:38;;;;;;;8.33;7.00;;;3.30;99.90;;;;;;4992164;28;20175;-53
2022/01/10 04:48:04;;;;;;;9.17;7.00;;;3.30;99.90;;;;;;4992835;28;20211;-50
2022/01/10 04:52:57;;;;;;;8.83;7.10;;;3.40;99.90;;;;;;4978661;28;20283;-60
2022/01/10 04:55:23;;;;;;;9.53;7.37;;;3.40;99.90;;;;;;4984215;28;20177;-61
2022/01/10 04:57:49;;;;;;;7.87;7.07;;;3.30;99.90;;;;;;4990348;28;20591;-61
2022/01/10 05:00:16;;;;;;;8.80;7.53;;;3.40;99.90;;;;;;4990727;28;20173;-62
2022/01/10 05:02:45;;;;;;;8.27;7.47;;;3.50;99.90;;;;;;4955463;28;20253;-59
2022/01/10 05:05:10;;;;;;;9.87;8.37;;;3.50;99.90;;;;;;4972794;28;20166;-59
2022/01/10 05:07:36;;;;;;;13.20;10.53;;;3.60;99.90;;;;;;4972882;28;20180;-61
2022/01/10 05:10:02;;;;;;;10.77;8.47;;;3.70;99.90;;;;;;4972883;28;20185;-62
2022/01/10 05:12:28;;;;;;;9.70;7.87;;;3.60;99.90;;;;;;4972728;28;20220;-62
2022/01/10 05:14:54;;;;;;;10.67;7.70;;;3.60;99.90;;;;;;4972738;28;20201;-62
2022/01/10 05:17:22;;;;;;;10.27;9.07;;;3.60;99.90;;;;;;4972720;28;20209;-60
2022/01/10 05:19:48;;;;;;;10.17;8.60;;;3.70;99.90;;;;;;4971728;28;20204;-60
2022/01/10 05:22:14;;;;;;;10.93;8.73;;;3.80;99.90;;;;;;4973199;28;20201;-59
2022/01/10 05:24:39;;;;;;;11.03;9.83;;;3.80;99.90;;;;;;4972267;28;20189;-60
2022/01/10 05:27:05;;;;;;;12.10;9.93;;;3.80;99.90;;;;;;4972623;28;20549;-63
2022/01/10 05:29:31;;;;;;;14.37;10.57;;;3.80;99.90;;;;;;4972953;28;20177;-59
2022/01/10 05:31:56;;;;;;;10.80;9.37;;;3.60;99.90;;;;;;4972793;28;20268;-57
2022/01/10 05:34:23;;;;;;;10.80;9.47;;;3.30;99.90;;;;;;4972330;28;20189;-59
2022/01/10 05:36:49;;;;;;;13.53;10.23;;;3.20;99.90;;;;;;4972935;28;20264;-61
2022/01/10 05:39:15;;;;;;;11.57;9.87;;;3.20;99.90;;;;;;4972606;28;20265;-59
2022/01/10 05:41:41;;;;;;;12.60;9.80;;;3.00;99.90;;;;;;4972830;28;20288;-61
2022/01/10 05:44:07;;;;;;;13.97;10.13;;;2.90;99.90;;;;;;4972310;28;20284;-60
2022/01/10 05:46:36;;;;;;;14.43;10.73;;;3.00;99.90;;;;;;4972751;28;20182;-62
2022/01/10 05:49:02;;;;;;;11.90;10.50;;;3.20;99.90;;;;;;4976578;28;20181;-61
2022/01/10 05:51:34;;;;;;;13.17;11.70;;;3.40;99.90;;;;;;4976397;28;20209;-61
2022/01/10 05:54:03;;;;;;;12.40;10.80;;;3.60;99.90;;;;;;4976550;28;20531;-59
2022/01/10 05:56:29;;;;;;;12.93;10.67;;;3.70;99.90;;;;;;4958993;28;20185;-61
2022/01/10 05:58:54;;;;;;;12.10;10.80;;;3.90;99.90;;;;;;4976520;28;20237;-61
2022/01/10 06:01:20;;;;;;;11.03;9.90;;;4.00;99.90;;;;;;4975845;28;20841;-60
2022/01/10 06:03:46;;;;;;;11.93;10.63;;;4.00;99.90;;;;;;4976327;28;20205;-60
2022/01/10 06:06:11;;;;;;;11.23;10.13;;;4.10;99.90;;;;;;4975900;28;20173;-63
2022/01/10 06:08:37;;;;;;;13.20;9.87;;;4.20;99.90;;;;;;4976329;28;20182;-61
2022/01/10 06:11:02;;;;;;;11.70;10.40;;;4.20;99.90;;;;;;4975925;28;20205;-59
2022/01/10 06:13:28;;;;;;;16.20;13.10;;;4.20;99.90;;;;;;4976328;28;20220;-60
2022/01/10 06:15:53;;;;;;;14.00;10.40;;;4.30;99.90;;;;;;4975627;28;20188;-60
2022/01/10 06:18:19;;;;;;;11.40;9.97;;;4.20;99.90;;;;;;4976173;28;20182;-61
2022/01/10 06:20:45;;;;;;;12.20;10.63;;;4.10;99.90;;;;;;4976049;28;20208;-62
2022/01/10 06:23:11;;;;;;;12.27;10.50;;;4.00;99.90;;;;;;4958583;28;20201;-63
2022/01/10 06:25:39;;;;;;;13.77;10.83;;;4.00;99.90;;;;;;4975791;28;20724;-63
2022/01/10 06:28:05;;;;;;;13.50;12.10;;;4.10;99.90;;;;;;4975940;28;20655;-62
2022/01/10 06:30:31;;;;;;;15.90;12.97;;;4.20;99.90;;;;;;4975846;28;20174;-63
2022/01/10 06:32:57;;;;;;;14.53;12.60;;;4.20;99.90;;;;;;4979001;28;20698;-63
2022/01/10 06:35:23;;;;;;;14.60;12.70;;;4.20;99.90;;;;;;4975615;28;20264;-63
2022/01/10 06:37:49;;;;;;;17.20;14.03;;;4.30;99.90;;;;;;4974932;28;20186;-61
2022/01/10 06:40:15;;;;;;;16.13;13.73;;;4.30;99.90;;;;;;4975920;28;20204;-63
2022/01/10 06:42:40;;;;;;;15.53;13.23;;;4.30;99.90;;;;;;4975595;28;20570;-63
2022/01/10 06:45:07;;;;;;;14.27;12.50;;;4.30;99.90;;;;;;4974853;28;20658;-63
2022/01/10 06:47:32;;;;;;;15.30;12.63;;;4.30;99.90;;;;;;4975520;28;20241;-62
2022/01/10 06:49:58;;;;;;;14.30;12.43;;;4.30;99.90;;;;;;4972155;28;20182;-62
2022/01/10 06:52:24;;;;;;;13.53;11.60;;;4.30;99.90;;;;;;4966861;28;20605;-61
2022/01/10 06:54:49;;;;;;;16.60;12.27;;;4.10;99.90;;;;;;4974675;28;20670;-58
2022/01/10 06:57:15;;;;;;;15.20;11.73;;;4.00;99.90;;;;;;4975081;28;20174;-59
2022/01/10 06:59:41;;;;;;;14.00;12.33;;;3.70;99.90;;;;;;4979943;28;20548;-59
2022/01/10 07:02:06;;;;;;;14.17;12.10;;;3.50;99.90;;;;;;4985007;28;20202;-60
2022/01/10 07:04:32;;;;;;;14.90;12.47;;;3.60;99.90;;;;;;4975314;28;20178;-59
2022/01/10 07:06:58;;;;;;;16.00;12.60;;;3.60;99.90;;;;;;4974668;28;20180;-59
2022/01/10 07:09:23;;;;;;;14.30;12.67;;;3.70;99.90;;;;;;4954181;29;20178;-59
2022/01/10 07:11:49;;;;;;;16.50;12.93;;;3.70;99.90;;;;;;4973612;28;20204;-60
2022/01/10 07:14:16;;;;;;;15.27;12.77;;;3.80;99.90;;;;;;4974750;28;20677;-58
2022/01/10 07:16:43;;;;;;;16.37;14.20;;;4.00;99.90;;;;;;4974895;28;20185;-58
2022/01/10 07:19:10;;;;;;;15.33;12.80;;;4.00;99.90;;;;;;4974743;28;20177;-60
2022/01/10 07:21:38;;;;;;;17.60;14.03;;;4.00;99.90;;;;;;4975175;28;20201;-61
2022/01/10 07:24:05;;;;;;;15.80;13.90;;;3.80;99.90;;;;;;4974262;28;20540;-61
2022/01/10 07:26:32;;;;;;;16.77;14.03;;;3.70;99.90;;;;;;4957632;28;20173;-58
2022/01/10 07:29:01;;;;;;;15.90;13.57;;;3.70;99.90;;;;;;4977352;28;20173;-61
2022/01/10 07:31:26;;;;;;;16.43;13.63;;;3.80;99.90;;;;;;4985444;28;20220;-61
2022/01/10 07:33:52;;;;;;;15.90;13.67;;;3.70;99.90;;;;;;4975836;28;20213;-61
2022/01/10 07:36:18;;;;;;;19.30;14.83;;;3.70;99.90;;;;;;4959998;28;20277;-60
2022/01/10 07:38:44;;;;;;;17.27;14.17;;;3.70;99.90;;;;;;4982609;28;20190;-60
2022/01/10 07:41:09;;;;;;;20.30;16.20;;;3.80;99.90;;;;;;4976880;28;20202;-59
2022/01/10 07:43:35;;;;;;;43.80;32.80;;;3.90;99.90;;;;;;4974376;28;20735;-61
2022/01/10 07:46:01;;;;;;;21.73;15.50;;;4.00;99.90;;;;;;4975194;28;20245;-62
2022/01/10 07:48:29;;;;;;;18.20;15.13;;;4.00;99.90;;;;;;4974683;28;20180;-60
2022/01/10 07:50:55;;;;;;;19.40;15.17;;;3.80;99.90;;;;;;4974532;28;20284;-60
2022/01/10 07:53:21;;;;;;;27.17;22.20;;;3.80;99.90;;;;;;4957142;28;20257;-59
2022/01/10 07:55:46;;;;;;;107.83;74.87;;;3.90;99.90;;;;;;4974094;28;20174;-57
2022/01/10 07:58:12;;;;;;;79.67;58.53;;;4.00;99.90;;;;;;4973973;28;20233;-58
2022/01/10 08:00:38;;;;;;;21.67;17.53;;;4.20;99.90;;;;;;4974134;28;20229;-59
2022/01/10 08:03:04;;;;;;;17.07;13.23;;;4.20;99.90;;;;;;4973840;28;20240;-56
2022/01/10 08:05:29;;;;;;;16.13;13.50;;;4.30;99.90;;;;;;4973536;28;20233;-57
2022/01/10 08:07:55;;;;;;;16.50;13.90;;;4.20;99.90;;;;;;4973988;28;20221;-57
2022/01/10 08:10:21;;;;;;;18.47;14.70;;;4.10;99.90;;;;;;4972775;28;20174;-60
2022/01/10 08:12:46;;;;;;;19.13;14.33;;;3.90;99.90;;;;;;4974294;28;20197;-59
2022/01/10 08:15:12;;;;;;;19.07;15.27;;;3.70;99.90;;;;;;4973629;28;20185;-58
2022/01/10 08:17:38;;;;;;;22.33;15.20;;;3.60;99.90;;;;;;4973756;28;20221;-58
2022/01/10 08:20:05;;;;;;;17.13;14.80;;;3.00;99.90;;;;;;4973913;28;20252;-56
2022/01/10 08:22:31;;;;;;;17.07;13.47;;;2.80;99.90;;;;;;4973605;28;20242;-57
2022/01/10 08:24:56;;;;;;;19.17;15.63;;;2.60;99.90;;;;;;4973446;28;20177;-57
2022/01/10 08:27:22;;;;;;;19.83;15.53;;;2.60;99.90;;;;;;4955965;28;20173;-61
2022/01/10 08:29:48;;;;;;;19.63;14.90;;;2.60;99.90;;;;;;4973984;28;20225;-61
2022/01/10 08:32:18;;;;;;;17.33;15.17;;;2.90;99.90;;;;;;4973760;28;20213;-60
2022/01/10 08:34:44;;;;;;;20.43;16.30;;;3.00;99.90;;;;;;4973145;28;20173;-62
2022/01/10 08:37:11;;;;;;;19.07;14.20;;;3.00;99.90;;;;;;4973299;28;20225;-60
2022/01/10 08:39:37;;;;;;;17.27;14.07;;;2.90;99.90;;;;;;4972388;28;20174;-60
2022/01/10 08:42:02;;;;;;;18.93;14.57;;;2.90;99.90;;;;;;4973467;28;20541;-59
2022/01/10 08:44:28;;;;;;;20.13;14.40;;;2.90;99.90;;;;;;4955731;28;20213;-57
2022/01/10 08:46:54;;;;;;;18.03;14.33;;;2.80;99.90;;;;;;4973619;28;20635;-57
2022/01/10 08:49:20;;;;;;;18.90;15.00;;;2.70;99.90;;;;;;4973492;28;20177;-55
2022/01/10 08:51:46;;;;;;;19.77;15.10;;;2.60;99.90;;;;;;4973088;28;20241;-59
2022/01/10 08:54:12;;;;;;;20.17;15.67;;;2.70;99.90;;;;;;4972867;28;20208;-61
2022/01/10 08:56:38;;;;;;;20.67;16.57;;;2.90;99.90;;;;;;4973454;28;20209;-59
2022/01/10 08:59:05;;;;;;;16.80;14.33;;;3.20;99.90;;;;;;4955689;28;20174;-61
2022/01/10 09:01:31;;;;;;;24.77;17.43;;;3.20;99.90;;;;;;4972834;28;20245;-58
2022/01/10 09:03:57;;;;;;;18.43;15.30;;;3.10;99.90;;;;;;4972822;28;20197;-57
2022/01/10 09:06:23;;;;;;;17.97;14.03;;;3.10;99.90;;;;;;4972799;28;20166;-59
2022/01/10 09:08:50;;;;;;;17.97;14.67;;;3.10;99.90;;;;;;4955569;28;20174;-59
2022/01/10 09:11:16;;;;;;;17.17;14.50;;;2.90;99.90;;;;;;4973080;28;20679;-60
2022/01/10 09:13:42;;;;;;;18.47;14.40;;;2.80;99.90;;;;;;4973366;28;20264;-61
2022/01/10 09:16:09;;;;;;;18.97;14.93;;;2.90;99.90;;;;;;4972783;28;20197;-58
2022/01/10 09:18:35;;;;;;;20.90;15.37;;;2.90;99.90;;;;;;4973045;28;20180;-59
2022/01/10 09:21:01;;;;;;;17.43;14.80;;;2.90;99.90;;;;;;4972978;28;20284;-60
2022/01/10 09:23:26;;;;;;;20.87;15.50;;;2.70;99.90;;;;;;4972833;28;20245;-59
2022/01/10 09:25:52;;;;;;;24.83;16.20;;;2.50;99.90;;;;;;4972909;28;20185;-60
2022/01/10 09:28:19;;;;;;;28.33;15.30;;;2.50;99.90;;;;;;4972458;28;20588;-62
2022/01/10 09:30:45;;;;;;;53.90;16.37;;;2.40;99.90;;;;;;4972896;28;20224;-58
2022/01/10 09:33:11;;;;;;;27.00;19.83;;;2.20;99.90;;;;;;4973001;28;20178;-61
2022/01/10 09:35:36;;;;;;;53.87;36.90;;;2.10;99.90;;;;;;4972465;28;20196;-60
2022/01/10 09:38:03;;;;;;;23.10;16.03;;;2.10;99.90;;;;;;4972703;28;20177;-60
2022/01/10 09:40:28;;;;;;;21.07;17.00;;;2.30;99.90;;;;;;4972481;28;20170;-60
2022/01/10 09:42:54;;;;;;;28.60;21.50;;;2.50;99.90;;;;;;4972846;28;20561;-61
2022/01/10 09:45:19;;;;;;;21.53;17.40;;;2.70;99.90;;;;;;4972186;28;20254;-58
2022/01/10 09:47:45;;;;;;;18.90;14.43;;;3.00;99.90;;;;;;4972649;28;20170;-61
2022/01/10 09:50:15;;;;;;;17.50;14.73;;;3.40;99.90;;;;;;4972758;28;20176;-62
2022/01/10 09:52:42;;;;;;;19.13;15.07;;;3.60;99.90;;;;;;4972475;28;20220;-60
2022/01/10 09:55:08;;;;;;;16.83;13.60;;;3.70;99.90;;;;;;4972438;28;20184;-58
2022/01/10 09:57:34;;;;;;;18.83;14.73;;;3.60;99.90;;;;;;4972337;28;20546;-60
2022/01/10 09:59:59;;;;;;;17.17;13.40;;;3.60;99.90;;;;;;4972675;28;20218;-61
2022/01/10 10:02:32;;;;;;;18.23;13.80;;;3.50;99.90;;;;;;4972356;28;20622;-58
2022/01/10 10:05:01;;;;;;;16.10;13.00;;;3.60;99.90;;;;;;4972479;28;20173;-59
2022/01/10 10:07:26;;;;;;;16.03;13.40;;;3.60;99.90;;;;;;4972576;28;20245;-58
2022/01/10 10:09:57;;;;;;;16.10;13.90;;;3.50;99.90;;;;;;4972337;28;20222;-59
2022/01/10 10:12:27;;;;;;;13.77;11.87;;;3.40;99.90;;;;;;4972586;28;20190;-61
2022/01/10 10:14:52;;;;;;;18.80;13.73;;;3.60;99.90;;;;;;4972103;28;20520;-57
2022/01/10 10:17:18;;;;;;;15.40;13.10;;;3.60;99.90;;;;;;4971333;28;20181;-58
2022/01/10 10:19:46;;;;;;;16.90;14.37;;;3.30;99.90;;;;;;4972310;28;20181;-58
2022/01/10 10:22:14;;;;;;;18.13;13.93;;;3.30;99.90;;;;;;4972416;28;20190;-58
2022/01/10 10:24:40;;;;;;;15.23;12.50;;;3.20;99.90;;;;;;4972135;28;20170;-57
2022/01/10 10:27:05;;;;;;;15.10;12.93;;;3.10;99.90;;;;;;4972349;28;20181;-59
2022/01/10 10:29:31;;;;;;;12.67;11.23;;;3.10;99.90;;;;;;4972768;28;20178;-57
2022/01/10 10:31:58;;;;;;;13.63;11.83;;;3.10;99.90;;;;;;4972167;28;20190;-55
2022/01/10 10:34:28;;;;;;;12.47;10.80;;;3.30;99.90;;;;;;4974833;28;20174;-56
2022/01/10 10:37:12;;;;;;;13.33;11.07;;;3.60;99.90;;;;;;4975662;28;20197;-55
2022/01/10 10:39:43;;;;;;;13.57;12.00;;;3.80;99.90;;;;;;4975791;28;20659;-61
2022/01/10 10:42:11;;;;;;;14.93;11.87;;;3.90;99.90;;;;;;4975533;28;20201;-57
2022/01/10 10:44:38;;;;;;;14.87;12.90;;;4.00;99.90;;;;;;4975406;28;20182;-58
2022/01/10 10:47:03;;;;;;;15.70;12.30;;;4.20;99.90;;;;;;4975727;28;20178;-57
2022/01/10 10:49:34;;;;;;;14.43;12.40;;;4.20;99.90;;;;;;4975769;28;20181;-54
2022/01/10 10:52:06;;;;;;;14.37;12.13;;;4.30;99.90;;;;;;4974137;28;20228;-55
2022/01/10 10:54:33;;;;;;;15.90;12.87;;;4.10;99.90;;;;;;4975121;28;20662;-56
2022/01/10 10:57:05;;;;;;;14.73;12.23;;;3.80;99.90;;;;;;4975534;28;20185;-57
2022/01/10 10:59:35;;;;;;;14.07;11.63;;;3.40;99.90;;;;;;4975462;28;20197;-55
2022/01/10 11:02:02;;;;;;;13.10;11.63;;;3.20;99.90;;;;;;4975257;28;20241;-59
2022/01/10 11:04:29;;;;;;;15.43;13.23;;;3.20;99.90;;;;;;4975002;28;20664;-61
2022/01/10 11:06:55;;;;;;;13.70;11.90;;;3.30;99.90;;;;;;4975144;28;20252;-56
2022/01/10 11:09:21;;;;;;;16.83;13.90;;;3.30;99.90;;;;;;4975266;28;20208;-58
2022/01/10 11:11:47;;;;;;;15.27;13.00;;;3.20;99.90;;;;;;4974991;28;20738;-57
2022/01/10 11:14:17;;;;;;;14.33;12.30;;;3.30;99.90;;;;;;4974711;28;20178;-59
2022/01/10 11:16:45;;;;;;;13.77;12.27;;;3.20;99.90;;;;;;4975124;28;20182;-57
2022/01/10 11:19:13;;;;;;;13.97;11.97;;;3.10;99.90;;;;;;4975038;28;20181;-57
2022/01/10 11:21:40;;;;;;;13.93;11.93;;;3.10;99.90;;;;;;4973948;28;20208;-59
2022/01/10 11:24:06;;;;;;;15.47;12.93;;;3.00;99.90;;;;;;4972916;28;20662;-58
2022/01/10 11:26:39;;;;;;;15.87;12.77;;;2.90;99.90;;;;;;4974808;28;20176;-59
2022/01/10 11:29:08;;;;;;;14.77;13.10;;;2.80;99.90;;;;;;4974644;28;20166;-59
2022/01/10 11:31:36;;;;;;;15.33;12.93;;;2.80;99.90;;;;;;4975135;28;20198;-58
2022/01/10 11:34:02;;;;;;;18.70;13.73;;;2.90;99.90;;;;;;4974337;28;20188;-61
2022/01/10 11:36:29;;;;;;;15.53;12.70;;;2.90;99.90;;;;;;4974535;28;20261;-62
2022/01/10 11:39:08;;;;;;;16.23;13.43;;;2.80;99.90;;;;;;4974606;28;20170;-59
2022/01/10 11:41:34;;;;;;;16.30;13.87;;;2.70;99.90;;;;;;4974672;28;20253;-59
2022/01/10 11:44:08;;;;;;;15.53;12.70;;;2.60;99.90;;;;;;4974404;28;20599;-59
2022/01/10 11:46:43;;;;;;;15.27;13.40;;;2.70;99.90;;;;;;4974223;28;20177;-60
2022/01/10 11:49:09;;;;;;;16.37;13.00;;;2.90;99.90;;;;;;4974136;28;20520;-59
2022/01/10 11:52:07;;;;;;;16.23;13.23;;;2.90;99.90;;;;;;4974338;28;20216;-61
2022/01/10 11:54:39;;;;;;;14.43;12.43;;;3.00;99.90;;;;;;4896200;29;20196;-60
2022/01/10 11:57:07;;;;;;;15.50;13.17;;;3.00;99.90;;;;;;4895972;29;20210;-61
2022/01/10 11:59:45;;;;;;;15.07;12.50;;;3.10;99.90;;;;;;4895904;29;20183;-58
2022/01/10 12:02:20;;;;;;;15.07;12.60;;;3.20;99.90;;;;;;4895517;29;20204;-58
2022/01/10 12:04:57;;;;;;;14.77;12.87;;;3.40;99.90;;;;;;4895455;29;20188;-60
2022/01/10 12:07:23;;;;;;;14.23;12.23;;;3.60;99.90;;;;;;4895359;29;20311;-59
2022/01/10 12:09:50;;;;;;;14.00;12.50;;;3.70;99.90;;;;;;4895655;29;20256;-57
2022/01/10 12:12:18;;;;;;;16.63;13.20;;;3.70;99.90;;;;;;4895304;29;20192;-57
2022/01/10 12:14:45;;;;;;;14.93;12.50;;;3.60;99.90;;;;;;4894966;29;20204;-56
2022/01/10 12:17:12;;;;;;;15.10;12.23;;;3.50;99.90;;;;;;4894558;29;20781;-54
2022/01/10 12:19:39;;;;;;;16.97;13.40;;;3.50;99.90;;;;;;4894493;29;20217;-59
2022/01/10 12:22:06;;;;;;;15.03;13.00;;;3.60;99.90;;;;;;4895124;29;20196;-55
2022/01/10 12:24:38;;;;;;;16.30;13.23;;;3.80;99.90;;;;;;4894444;29;20985;-58
2022/01/10 12:27:07;;;;;;;15.53;12.40;;;4.00;99.90;;;;;;4895428;29;20710;-58
2022/01/10 12:29:33;;;;;;;15.63;12.67;;;4.00;99.90;;;;;;4910922;28;20178;-59
2022/01/10 12:31:59;;;;;;;13.07;11.60;;;4.00;99.90;;;;;;4973756;28;20550;-57
2022/01/10 12:34:26;;;;;;;17.10;13.37;;;4.10;99.90;;;;;;4973513;28;20254;-57
2022/01/10 12:36:51;;;;;;;16.30;12.70;;;4.30;99.90;;;;;;4973168;28;20181;-57
2022/01/10 12:39:23;;;;;;;14.77;12.03;;;4.30;99.90;;;;;;4973610;28;20182;-58
2022/01/10 12:41:50;;;;;;;14.57;12.63;;;4.40;99.90;;;;;;4973331;28;20756;-57
2022/01/10 12:44:16;;;;;;;14.10;11.93;;;4.50;99.90;;;;;;4973343;28;20205;-59
2022/01/10 12:46:42;;;;;;;14.40;11.97;;;4.30;99.90;;;;;;4973374;28;20236;-61
2022/01/10 12:49:10;;;;;;;14.13;11.43;;;4.30;99.90;;;;;;4973172;28;20542;-57
2022/01/10 12:51:39;;;;;;;12.90;11.50;;;4.20;99.90;;;;;;4973167;28;20292;-55
2022/01/10 12:54:14;;;;;;;15.00;12.03;;;4.00;99.90;;;;;;4972174;28;20236;-61